Time;durP1;ratioP1;P1;durP2;ratioP2;P2;SDS_P1;SDS_P2;PMS_P1;PMS_P2;Temp;Humidity;BMP_temperature;BMP_pressure;BME280_temperature;BME280_humidity;BME280_pressure;Samples;Min_cycle;Max_cycle;Signal;HPM_P1;HPM_P2
2024/02/22 00:00:47;;;;;;;40.13;26.73;;;;;;;8.94;100.00;100705.38;5035456;28;20120;-77
2024/02/22 00:03:13;;;;;;;46.67;26.50;;;;;;;9.08;100.00;100711.63;5026808;28;20029;-80
2024/02/22 00:05:38;;;;;;;37.63;23.08;;;;;;;9.23;96.32;100720.34;5027083;28;20878;-79
2024/02/22 00:08:04;;;;;;;39.22;23.33;;;;;;;8.49;100.00;100691.47;5026668;28;20037;-80
2024/02/22 00:10:29;;;;;;;49.50;29.17;;;;;;;8.33;100.00;100705.81;5026750;28;20033;-79
2024/02/22 00:12:56;;;;;;;45.35;26.83;;;;;;;8.47;100.00;100694.31;5026925;28;20819;-79
2024/02/22 00:15:23;;;;;;;45.80;27.92;;;;;;;9.10;100.00;100721.06;5026977;28;20048;-79
2024/02/22 00:17:49;;;;;;;42.67;26.08;;;;;;;8.71;100.00;100717.06;5026699;28;20422;-79
2024/02/22 00:20:16;;;;;;;43.83;30.02;;;;;;;8.88;100.00;100706.97;5030686;28;20108;-79
2024/02/22 00:22:41;;;;;;;61.70;40.92;;;;;;;8.98;100.00;100711.97;5029895;28;20064;-79
2024/02/22 00:25:08;;;;;;;55.15;34.75;;;;;;;8.54;100.00;100683.75;5026731;28;20030;-80
2024/02/22 00:27:35;;;;;;;55.92;38.45;;;;;;;8.86;100.00;100698.34;5027118;28;20025;-79
2024/02/22 00:30:02;;;;;;;51.65;35.17;;;;;;;9.00;100.00;100694.78;5025382;28;20491;-79
2024/02/22 00:32:27;;;;;;;48.28;32.03;;;;;;;8.96;100.00;100682.88;5026521;28;20029;-80
2024/02/22 00:34:53;;;;;;;43.20;30.30;;;;;;;8.67;100.00;100694.53;5026685;28;20032;-79
2024/02/22 00:37:18;;;;;;;38.72;25.33;;;;;;;8.74;100.00;100676.78;5026867;28;20049;-79
2024/02/22 00:39:46;;;;;;;43.65;28.02;;;;;;;8.34;100.00;100679.03;5026874;28;20033;-79
2024/02/22 00:42:12;;;;;;;;;;;;;;;8.79;100.00;100695.66;5027028;28;20106;-79
2024/02/22 00:44:37;;;;;;;41.25;26.40;;;;;;;8.67;100.00;100686.53;5058981;28;20349;-80
2024/02/22 00:47:03;;;;;;;30.02;18.25;;;;;;;7.79;100.00;100659.22;5026464;28;20479;-79
2024/02/22 00:49:28;;;;;;;28.20;18.60;;;;;;;8.07;100.00;100669.13;5026779;28;20029;-79
2024/02/22 00:51:54;;;;;;;23.65;15.98;;;;;;;7.95;100.00;100664.31;5040906;28;20029;-79
2024/02/22 00:54:19;;;;;;;29.17;17.55;;;;;;;7.77;100.00;100650.63;5036801;28;20030;-80
2024/02/22 00:56:44;;;;;;;27.60;16.52;;;;;;;7.96;100.00;100671.25;5027716;28;20041;-80
2024/02/22 00:59:10;;;;;;;26.88;16.92;;;;;;;8.18;100.00;100669.47;5030355;28;20025;-79
2024/02/22 01:01:35;;;;;;;32.58;19.42;;;;;;;8.26;100.00;100673.84;5030006;28;20033;-79
2024/02/22 01:04:01;;;;;;;29.55;17.27;;;;;;;8.04;100.00;100641.13;5028536;28;20031;-79
2024/02/22 01:06:26;;;;;;;25.05;14.52;;;;;;;8.20;100.00;100672.75;5029741;28;20033;-80
2024/02/22 01:08:52;;;;;;;19.38;11.90;;;;;;;8.15;98.97;100653.91;5030142;28;20029;-79
2024/02/22 01:11:17;;;;;;;17.73;11.10;;;;;;;8.19;97.59;100644.56;5030425;28;20033;-79
2024/02/22 01:13:43;;;;;;;17.10;10.77;;;;;;;8.36;95.48;100639.81;5029537;28;20045;-78
2024/02/22 01:16:08;;;;;;;16.98;10.93;;;;;;;8.52;93.96;100654.72;5029993;28;20049;-79
2024/02/22 01:18:34;;;;;;;15.13;10.35;;;;;;;8.54;90.74;100651.84;5030039;28;20387;-79
2024/02/22 01:20:59;;;;;;;15.52;9.98;;;;;;;8.62;89.99;100659.69;5031720;28;20116;-79
2024/02/22 01:23:25;;;;;;;17.17;10.30;;;;;;;8.40;90.82;100648.25;5048000;28;20035;-79
2024/02/22 01:25:51;;;;;;;17.92;10.68;;;;;;;8.12;92.66;100637.53;5029677;28;20064;-79
2024/02/22 01:28:17;;;;;;;22.98;12.05;;;;;;;7.84;92.38;100590.44;5029627;28;20134;-79
2024/02/22 01:30:42;;;;;;;16.38;10.27;;;;;;;8.15;92.80;100642.44;5029675;28;20034;-79
2024/02/22 01:33:09;;;;;;;16.40;11.43;;;;;;;8.17;92.26;100637.78;5029615;28;20120;-79
2024/02/22 01:35:34;;;;;;;18.10;11.88;;;;;;;7.78;96.86;100609.78;5029232;28;20625;-78
2024/02/22 01:38:00;;;;;;;19.75;12.43;;;;;;;7.98;95.53;100640.03;5029737;28;20647;-78
2024/02/22 01:40:25;;;;;;;16.95;11.60;;;;;;;7.84;95.33;100614.34;5029028;28;20559;-78
2024/02/22 01:42:51;;;;;;;17.75;11.73;;;;;;;7.98;96.29;100642.69;5029088;28;20410;-79
2024/02/22 01:45:16;;;;;;;17.35;11.25;;;;;;;7.68;96.76;100603.94;5029627;28;20037;-79
2024/02/22 01:47:42;;;;;;;17.58;11.23;;;;;;;8.14;93.94;100624.88;5029516;28;20074;-78
2024/02/22 01:50:09;;;;;;;16.55;11.10;;;;;;;7.96;93.49;100628.78;5029490;28;20030;-79
2024/02/22 01:52:35;;;;;;;16.67;11.03;;;;;;;7.77;93.24;100602.84;5029127;28;20034;-80
2024/02/22 01:55:01;;;;;;;16.42;10.75;;;;;;;7.61;94.04;100615.31;5028044;28;20033;-79
2024/02/22 01:57:27;;;;;;;18.55;10.98;;;;;;;7.58;92.75;100620.16;5029396;28;20100;-79
2024/02/22 01:59:52;;;;;;;19.88;11.57;;;;;;;7.41;93.40;100593.81;5028997;28;20033;-79
2024/02/22 02:02:18;;;;;;;16.95;10.38;;;;;;;7.43;93.54;100597.13;5048687;28;20021;-79
2024/02/22 02:04:44;;;;;;;17.40;11.88;;;;;;;7.39;95.04;100597.69;5037670;28;20829;-79
2024/02/22 02:07:10;;;;;;;17.23;10.95;;;;;;;6.97;97.66;100575.31;5028742;28;20477;-79
2024/02/22 02:09:35;;;;;;;17.55;10.15;;;;;;;6.32;100.00;100585.50;5028816;28;20460;-79
2024/02/22 02:12:01;;;;;;;16.52;11.10;;;;;;;6.20;100.00;100592.22;5028842;28;20553;-79
2024/02/22 02:14:26;;;;;;;19.48;12.13;;;;;;;6.52;100.00;100592.94;5028550;28;20148;-78
2024/02/22 02:16:51;;;;;;;18.15;11.13;;;;;;;6.54;100.00;100612.13;5028796;28;20088;-79
2024/02/22 02:19:19;;;;;;;19.27;12.70;;;;;;;6.72;100.00;100604.72;5028691;28;20033;-78
2024/02/22 02:22:10;;;;;;;20.83;13.85;;;;;;;6.72;100.00;100594.13;5028722;28;20030;-80
2024/02/22 02:24:44;;;;;;;20.75;13.30;;;;;;;6.36;100.00;100568.25;5028243;28;20499;-79
2024/02/22 02:27:11;;;;;;;23.27;14.40;;;;;;;6.60;100.00;100611.47;5028682;28;20176;-79
2024/02/22 02:29:37;;;;;;;24.85;15.23;;;;;;;6.53;100.00;100602.56;5028609;28;20099;-78
2024/02/22 02:32:03;;;;;;;26.23;15.02;;;;;;;6.48;100.00;100589.00;5028241;28;20033;-79
2024/02/22 02:34:29;;;;;;;27.75;16.15;;;;;;;6.51;100.00;100604.56;5032750;28;20518;-78
2024/02/22 02:36:54;;;;;;;28.13;15.90;;;;;;;6.28;100.00;100596.66;5028117;28;20414;-80
2024/02/22 02:39:20;;;;;;;31.25;16.02;;;;;;;6.36;100.00;100594.75;5028419;28;20697;-79
2024/02/22 02:41:45;;;;;;;26.17;14.60;;;;;;;6.42;99.37;100604.63;5028020;28;20406;-79
2024/02/22 02:44:11;;;;;;;22.52;13.68;;;;;;;6.37;99.98;100598.22;5028554;28;20025;-79
2024/02/22 02:46:36;;;;;;;24.17;13.38;;;;;;;6.33;100.00;100600.38;5028609;28;20030;-78
2024/02/22 02:49:01;;;;;;;26.88;13.80;;;;;;;6.28;99.35;100597.47;5028386;28;20032;-79
2024/02/22 02:51:28;;;;;;;27.17;13.07;;;;;;;5.71;100.00;100613.69;5028302;28;20029;-79
2024/02/22 02:53:55;;;;;;;22.08;12.52;;;;;;;5.80;100.00;100572.94;5027799;28;20456;-79
2024/02/22 02:56:20;;;;;;;19.50;11.18;;;;;;;6.06;100.00;100604.41;5026563;28;20029;-78
2024/02/22 02:58:45;;;;;;;25.25;11.60;;;;;;;5.17;100.00;100557.06;5027017;28;20057;-78
2024/02/22 03:01:11;;;;;;;17.30;10.95;;;;;;;5.56;100.00;100598.56;5026578;28;20026;-79
2024/02/22 03:03:36;;;;;;;18.48;11.23;;;;;;;5.24;100.00;100579.16;5027717;28;20383;-79
2024/02/22 03:06:02;;;;;;;19.85;12.10;;;;;;;5.42;100.00;100600.09;5028339;28;20036;-78
2024/02/22 03:08:28;;;;;;;22.70;13.85;;;;;;;5.43;100.00;100592.97;5026426;28;20025;-78
2024/02/22 03:10:53;;;;;;;22.73;14.18;;;;;;;5.09;100.00;100574.75;5027796;28;20048;-78
2024/02/22 03:13:18;;;;;;;20.60;12.50;;;;;;;4.97;100.00;100582.25;5046302;28;20112;-79
2024/02/22 03:15:44;;;;;;;19.30;11.60;;;;;;;5.16;100.00;100570.44;5026574;28;20050;-78
2024/02/22 03:18:09;;;;;;;17.02;11.55;;;;;;;5.32;100.00;100574.84;5025821;28;20041;-79
2024/02/22 03:20:35;;;;;;;17.00;10.98;;;;;;;5.59;100.00;100611.41;5026325;28;20103;-79
2024/02/22 03:23:00;;;;;;;18.73;10.70;;;;;;;5.28;100.00;100613.22;5027651;28;20030;-79
2024/02/22 03:25:29;;;;;;;17.40;10.55;;;;;;;4.77;100.00;100601.09;5042892;28;20032;-79
2024/02/22 03:27:58;;;;;;;;;;;;;;;4.59;100.00;100622.41;5028003;28;20025;-79
2024/02/22 03:30:24;;;;;;;18.58;10.32;;;;;;;4.29;100.00;100623.94;5027401;28;20011;-80
2024/02/22 03:32:51;;;;;;;16.00;9.52;;;;;;;3.62;100.00;100608.13;5027289;28;20037;-79
2024/02/22 03:35:17;;;;;;;13.25;8.38;;;;;;;2.94;100.00;100603.69;5040791;28;20040;-78
2024/02/22 03:37:43;;;;;;;13.93;8.77;;;;;;;2.95;100.00;100610.63;5032005;28;20025;-79
2024/02/22 03:40:09;;;;;;;15.63;9.48;;;;;;;3.43;100.00;100596.00;5027131;28;20030;-78
2024/02/22 03:42:34;;;;;;;15.65;9.30;;;;;;;4.08;100.00;100607.72;5027052;28;20044;-79
2024/02/22 03:45:00;;;;;;;16.67;9.65;;;;;;;4.33;100.00;100613.84;5026131;28;20037;-79
2024/02/22 03:47:25;;;;;;;16.67;9.65;;;;;;;4.39;100.00;100600.81;5025687;28;20190;-79
2024/02/22 03:49:51;;;;;;;16.73;10.45;;;;;;;4.61;100.00;100603.78;5027088;28;20036;-79
2024/02/22 03:52:17;;;;;;;17.45;10.65;;;;;;;4.52;100.00;100625.91;5027161;28;20037;-79
2024/02/22 03:54:42;;;;;;;18.95;11.60;;;;;;;4.68;100.00;100615.34;5035159;28;20116;-78
2024/02/22 03:57:08;;;;;;;21.50;12.55;;;;;;;4.86;100.00;100623.06;5039539;28;20049;-80
2024/02/22 03:59:33;;;;;;;18.52;11.35;;;;;;;4.43;100.00;100615.34;5027258;28;20032;-79
2024/02/22 04:01:59;;;;;;;17.00;10.25;;;;;;;4.25;100.00;100614.69;5027125;28;20487;-78
2024/02/22 04:04:27;;;;;;;16.30;10.25;;;;;;;4.11;100.00;100616.16;5025675;28;20116;-78
2024/02/22 04:06:52;;;;;;;23.45;15.05;;;;;;;3.95;100.00;100606.38;5026873;28;20438;-79
2024/02/22 04:09:18;;;;;;;20.60;11.98;;;;;;;4.34;100.00;100629.53;5026753;28;20026;-79
2024/02/22 04:11:44;;;;;;;19.45;10.95;;;;;;;4.36;100.00;100621.44;5027401;28;20033;-78
2024/02/22 04:14:09;;;;;;;19.95;11.55;;;;;;;4.36;100.00;100616.97;5026911;28;20031;-79
2024/02/22 04:16:34;;;;;;;18.55;10.65;;;;;;;4.41;100.00;100627.91;5027109;28;20419;-79
2024/02/22 04:19:00;;;;;;;20.02;10.68;;;;;;;4.30;100.00;100617.66;5027229;28;20557;-79
2024/02/22 04:21:25;;;;;;;18.70;11.18;;;;;;;3.69;100.00;100613.56;5026731;28;20108;-78
2024/02/22 04:23:51;;;;;;;19.70;12.65;;;;;;;3.42;100.00;100591.72;5027017;28;20549;-80
2024/02/22 04:26:16;;;;;;;23.60;14.13;;;;;;;4.07;100.00;100612.19;5029128;28;20635;-79
2024/02/22 04:28:42;;;;;;;18.40;10.75;;;;;;;4.38;100.00;100625.56;5027138;28;20022;-78
2024/02/22 04:31:07;;;;;;;17.23;10.82;;;;;;;4.34;100.00;100624.25;5029506;28;20120;-78
2024/02/22 04:33:32;;;;;;;18.63;10.68;;;;;;;4.15;100.00;100603.47;5041068;28;20079;-79
2024/02/22 04:35:59;;;;;;;18.90;11.52;;;;;;;4.27;100.00;100612.72;5032424;28;20029;-79
2024/02/22 04:38:24;;;;;;;25.58;16.05;;;;;;;4.38;100.00;100624.75;5030492;28;20033;-80
2024/02/22 04:40:51;;;;;;;19.83;11.50;;;;;;;4.29;100.00;100601.97;5029288;28;20045;-79
2024/02/22 04:43:16;;;;;;;19.42;11.43;;;;;;;4.49;100.00;100621.75;5029337;28;20041;-80
2024/02/22 04:45:42;;;;;;;24.73;14.45;;;;;;;4.20;100.00;100630.19;5045746;28;20109;-78
2024/02/22 04:48:08;;;;;;;34.67;17.58;;;;;;;3.73;100.00;100604.34;5042074;28;20037;-80
2024/02/22 04:50:33;;;;;;;24.50;13.90;;;;;;;3.54;100.00;100593.09;5030603;28;20030;-79
2024/02/22 04:53:00;;;;;;;23.52;12.60;;;;;;;4.07;100.00;100606.09;5030334;28;20454;-79
2024/02/22 04:55:26;;;;;;;19.08;12.98;;;;;;;4.28;100.00;100601.13;5030595;28;20040;-79
2024/02/22 04:57:52;;;;;;;19.63;12.70;;;;;;;4.40;100.00;100623.59;5030286;28;20090;-79
2024/02/22 05:00:18;;;;;;;17.85;10.73;;;;;;;4.37;100.00;100608.09;5030374;28;20025;-79
2024/02/22 05:02:44;;;;;;;24.05;15.25;;;;;;;4.50;100.00;100619.97;5029859;28;20410;-79
2024/02/22 05:05:10;;;;;;;53.17;18.35;;;;;;;4.34;100.00;100591.75;5029968;28;20478;-79
2024/02/22 05:07:36;;;;;;;18.95;12.98;;;;;;;4.78;100.00;100626.56;5031867;28;20029;-79
2024/02/22 05:10:03;;;;;;;17.70;10.88;;;;;;;4.34;100.00;100587.28;5050304;28;20022;-79
2024/02/22 05:12:29;;;;;;;16.92;10.63;;;;;;;4.46;100.00;100610.72;5048498;28;20143;-79
2024/02/22 05:14:54;;;;;;;15.38;9.32;;;;;;;4.34;100.00;100595.19;5041614;28;20112;-79
2024/02/22 05:17:21;;;;;;;23.05;10.00;;;;;;;4.45;100.00;100614.34;5030265;28;20037;-78
2024/02/22 05:19:47;;;;;;;18.63;11.10;;;;;;;4.66;100.00;100634.97;5028738;28;20535;-78
2024/02/22 05:22:13;;;;;;;16.98;9.52;;;;;;;4.46;100.00;100611.53;5030256;28;20486;-79
2024/02/22 05:24:39;;;;;;;15.30;9.52;;;;;;;4.45;100.00;100624.91;5029137;28;20036;-78
2024/02/22 05:27:05;;;;;;;16.77;11.02;;;;;;;4.32;100.00;100599.81;5030359;28;20033;-78
2024/02/22 05:29:31;;;;;;;16.88;9.73;;;;;;;4.21;100.00;100621.28;5030798;28;20665;-79
2024/02/22 05:31:57;;;;;;;17.27;10.13;;;;;;;4.20;100.00;100649.47;5030424;28;20491;-79
2024/02/22 05:34:24;;;;;;;17.60;10.27;;;;;;;4.06;100.00;100636.09;5034452;28;20103;-78
2024/02/22 05:36:50;;;;;;;20.67;11.80;;;;;;;4.48;100.00;100641.25;5045779;28;20032;-78
2024/02/22 05:39:16;;;;;;;21.73;13.52;;;;;;;4.36;100.00;100632.81;5037888;28;20029;-79
2024/02/22 05:41:42;;;;;;;18.83;10.70;;;;;;;4.54;100.00;100660.91;5028169;28;20033;-79
2024/02/22 05:44:07;;;;;;;20.92;11.05;;;;;;;4.42;100.00;100657.75;5030606;28;20033;-78
2024/02/22 05:46:32;;;;;;;19.05;12.25;;;;;;;4.56;100.00;100649.19;5036934;28;20552;-78
2024/02/22 05:48:58;;;;;;;28.15;20.73;;;;;;;4.65;100.00;100655.28;5037218;28;20089;-78
2024/02/22 05:51:23;;;;;;;21.58;13.05;;;;;;;4.46;100.00;100674.13;5036395;28;20445;-79
2024/02/22 05:53:52;;;;;;;21.23;13.07;;;;;;;4.56;100.00;100669.50;5036119;28;20032;-79
2024/02/22 05:56:17;;;;;;;36.55;28.25;;;;;;;4.57;100.00;100669.31;5038665;28;20102;-79
2024/02/22 05:58:44;;;;;;;33.05;22.38;;;;;;;5.09;100.00;100673.41;5040146;28;20406;-79
2024/02/22 06:01:11;;;;;;;30.50;19.67;;;;;;;5.06;100.00;100649.94;5041153;28;20037;-79
2024/02/22 06:03:37;;;;;;;26.83;17.85;;;;;;;5.29;100.00;100665.94;5039632;28;20013;-80
2024/02/22 06:06:03;;;;;;;24.00;15.02;;;;;;;5.19;100.00;100633.56;5034860;28;20459;-77
2024/02/22 06:08:28;;;;;;;20.75;13.63;;;;;;;5.39;100.00;100661.28;5036237;28;20029;-78
2024/02/22 06:10:54;;;;;;;22.05;13.88;;;;;;;5.16;100.00;100663.81;5035339;28;20036;-78
2024/02/22 06:13:19;;;;;;;22.25;15.40;;;;;;;4.88;100.00;100649.31;5035512;28;20033;-79
2024/02/22 06:15:45;;;;;;;27.27;18.48;;;;;;;5.28;100.00;100653.69;5035303;28;20144;-78
2024/02/22 06:18:10;;;;;;;29.33;20.60;;;;;;;5.46;100.00;100671.19;5035166;28;20740;-79
2024/02/22 06:20:36;;;;;;;23.23;14.93;;;;;;;5.63;100.00;100663.00;5034572;28;20492;-79
2024/02/22 06:23:03;;;;;;;20.60;13.43;;;;;;;5.62;100.00;100661.38;5034761;28;20022;-78
2024/02/22 06:25:29;;;;;;;16.60;10.40;;;;;;;5.66;100.00;100671.59;5028912;28;20036;-79
2024/02/22 06:27:55;;;;;;;18.48;10.20;;;;;;;5.57;100.00;100637.22;5031307;28;20030;-78
2024/02/22 06:30:21;;;;;;;19.17;11.85;;;;;;;6.12;100.00;100655.84;5030461;28;20041;-78
2024/02/22 06:32:47;;;;;;;23.40;17.20;;;;;;;6.60;100.00;100680.34;5029788;28;20029;-80
2024/02/22 06:35:13;;;;;;;27.92;23.92;;;;;;;6.64;100.00;100684.31;5036528;28;20111;-80
2024/02/22 06:37:38;;;;;;;27.25;21.00;;;;;;;6.70;100.00;100683.59;5032760;28;20171;-78
2024/02/22 06:40:07;;;;;;;32.92;26.85;;;;;;;6.76;100.00;100690.81;5029743;28;20029;-79
2024/02/22 06:42:35;;;;;;;24.48;19.65;;;;;;;7.01;100.00;100703.88;5029664;28;20029;-79
2024/02/22 06:45:00;;;;;;;15.25;10.25;;;;;;;6.86;100.00;100663.22;5028961;28;20029;-79
2024/02/22 06:47:26;;;;;;;16.48;9.93;;;;;;;7.01;100.00;100687.97;5043630;28;20040;-79
2024/02/22 06:49:52;;;;;;;17.92;11.90;;;;;;;7.00;100.00;100670.38;5038074;28;20031;-79
2024/02/22 06:52:17;;;;;;;21.98;13.35;;;;;;;10.51;100.00;100629.28;5028614;28;20017;-79
2024/02/22 06:54:43;;;;;;;31.58;18.85;;;;;;;11.81;81.36;100697.03;5027491;28;20033;-80
2024/02/22 06:57:08;;;;;;;18.77;12.23;;;;;;;11.19;78.25;100701.06;5040417;28;20029;-79
2024/02/22 06:59:33;;;;;;;20.70;14.27;;;;;;;11.00;84.34;100690.22;5034594;28;20064;-79
2024/02/22 07:01:59;;;;;;;37.97;25.88;;;;;;;12.60;74.63;100696.84;5008164;28;20475;-79
2024/02/22 07:04:24;;;;;;;21.38;12.05;;;;;;;11.38;80.04;100689.56;5008161;28;20601;-79
2024/02/22 07:06:50;;;;;;;22.85;14.45;;;;;;;12.17;69.27;100692.97;5027920;28;20036;-79
2024/02/22 07:09:15;;;;;;;19.88;12.65;;;;;;;11.68;73.61;100693.56;5027901;28;20030;-80
2024/02/22 07:11:41;;;;;;;16.13;10.45;;;;;;;11.95;72.06;100680.94;5027993;28;20120;-79
2024/02/22 07:14:06;;;;;;;13.93;9.02;;;;;;;11.78;72.29;100704.63;5028297;28;20072;-80
2024/02/22 07:16:32;;;;;;;13.25;5.93;;;;;;;11.54;69.40;100693.59;5039291;28;20131;-79
2024/02/22 07:18:58;;;;;;;10.13;6.10;;;;;;;10.44;73.63;100690.56;5047431;28;20031;-79
2024/02/22 07:21:23;;;;;;;11.23;6.18;;;;;;;10.60;74.50;100684.88;5028585;28;20030;-79
2024/02/22 07:23:48;;;;;;;8.77;4.90;;;;;;;10.76;67.13;100646.28;5047420;28;20059;-80
2024/02/22 07:26:17;;;;;;;9.73;5.80;;;;;;;10.20;78.49;100667.97;5033703;28;20124;-79
2024/02/22 07:28:42;;;;;;;11.65;6.03;;;;;;;12.08;68.06;100674.75;5027688;28;20057;-79
2024/02/22 07:31:08;;;;;;;9.93;5.72;;;;;;;11.52;67.74;100684.16;5043395;28;20159;-84
2024/02/22 07:33:34;;;;;;;10.27;5.43;;;;;;;11.17;68.70;100695.94;5046580;28;20032;-79
2024/02/22 07:36:00;;;;;;;9.30;5.57;;;;;;;10.90;66.29;100680.97;5039982;28;20056;-80
2024/02/22 07:38:25;;;;;;;25.48;7.38;;;;;;;11.76;71.27;100666.63;5028228;28;20479;-80
2024/02/22 07:40:51;;;;;;;9.48;5.35;;;;;;;12.04;63.39;100664.47;5027373;28;20025;-80
2024/02/22 07:43:17;;;;;;;9.95;5.53;;;;;;;12.74;61.52;100685.00;5027096;28;20076;-80
2024/02/22 07:45:42;;;;;;;9.10;5.75;;;;;;;11.43;63.02;100676.38;5027469;28;20120;-79
2024/02/22 07:48:10;;;;;;;10.13;4.63;;;;;;;10.84;70.40;100682.63;5026736;28;20120;-79
2024/02/22 07:50:36;;;;;;;9.30;5.07;;;;;;;10.34;71.41;100669.66;5027320;28;20038;-79
2024/02/22 07:53:01;;;;;;;8.45;5.05;;;;;;;9.80;75.53;100638.50;5026727;28;20029;-79
2024/02/22 07:55:27;;;;;;;8.57;4.68;;;;;;;10.81;75.32;100649.16;5027019;28;20476;-79
2024/02/22 07:57:53;;;;;;;8.07;5.13;;;;;;;10.76;71.14;100648.94;5027071;28;20076;-79
2024/02/22 08:00:18;;;;;;;10.32;5.35;;;;;;;10.94;72.53;100658.19;5026997;28;20099;-79
2024/02/22 08:02:44;;;;;;;10.75;5.78;;;;;;;11.22;69.63;100666.78;5026844;28;20028;-80
2024/02/22 08:05:11;;;;;;;8.77;5.68;;;;;;;11.33;68.02;100653.81;5030781;28;20119;-80
2024/02/22 08:07:40;;;;;;;8.93;5.43;;;;;;;11.59;69.75;100683.13;5033095;28;20056;-79
2024/02/22 08:10:06;;;;;;;9.70;5.32;;;;;;;12.43;64.48;100681.31;5027082;28;20036;-79
2024/02/22 08:12:32;;;;;;;8.32;5.70;;;;;;;12.30;64.03;100673.38;5026690;28;20614;-79
2024/02/22 08:15:02;;;;;;;9.23;5.72;;;;;;;12.15;65.68;100664.81;5026197;28;20121;-80
2024/02/22 08:17:29;;;;;;;8.70;5.78;;;;;;;12.73;62.21;100667.31;5026439;28;20029;-79
2024/02/22 08:19:54;;;;;;;8.00;5.25;;;;;;;12.18;62.82;100667.88;5026981;28;20487;-78
2024/02/22 08:22:20;;;;;;;9.00;6.50;;;;;;;12.09;68.84;100658.47;5026490;28;20029;-79
2024/02/22 08:24:45;;;;;;;8.20;5.75;;;;;;;12.25;66.63;100659.81;5026491;28;20433;-80
2024/02/22 08:27:11;;;;;;;8.82;5.85;;;;;;;12.49;64.50;100660.09;5026494;28;20461;-80
2024/02/22 08:29:36;;;;;;;10.45;7.18;;;;;;;13.63;62.42;100645.44;5026174;28;20064;-80
2024/02/22 08:32:04;;;;;;;9.02;5.85;;;;;;;14.19;58.61;100653.34;5024363;28;20118;-79
2024/02/22 08:34:30;;;;;;;10.02;6.78;;;;;;;14.61;56.45;100670.31;5025106;28;20045;-80
2024/02/22 08:36:56;;;;;;;7.55;4.93;;;;;;;14.05;56.38;100658.88;5024904;28;20060;-80
2024/02/22 08:39:21;;;;;;;7.20;5.20;;;;;;;14.06;55.21;100663.22;5024228;28;20112;-79
2024/02/22 08:41:47;;;;;;;8.70;5.88;;;;;;;13.69;58.54;100656.28;5025117;28;20029;-79
2024/02/22 08:44:12;;;;;;;9.75;6.10;;;;;;;13.39;58.31;100659.72;5025403;28;20117;-79
2024/02/22 08:46:37;;;;;;;8.95;6.30;;;;;;;13.89;57.02;100672.94;5041097;28;20029;-80
2024/02/22 08:49:03;;;;;;;10.10;6.47;;;;;;;13.93;57.10;100655.34;5027161;28;20465;-79
2024/02/22 08:51:28;;;;;;;8.82;5.75;;;;;;;13.81;55.80;100668.72;5026117;28;20024;-80
2024/02/22 08:53:53;;;;;;;20.67;17.38;;;;;;;15.00;54.64;100676.06;5026692;28;20033;-79
2024/02/22 08:56:19;;;;;;;8.55;5.78;;;;;;;14.96;51.00;100657.97;5024896;28;20029;-78
2024/02/22 08:58:44;;;;;;;8.30;5.28;;;;;;;14.23;53.51;100652.66;5026321;28;20037;-81
2024/02/22 09:01:11;;;;;;;13.68;12.27;;;;;;;14.00;55.18;100664.13;5026403;28;20105;-80
2024/02/22 09:03:36;;;;;;;8.48;5.25;;;;;;;14.25;55.58;100644.41;5026297;28;20045;-80
2024/02/22 09:06:02;;;;;;;8.98;5.45;;;;;;;14.40;54.75;100649.31;5026177;28;20038;-79
2024/02/22 09:08:27;;;;;;;9.55;5.50;;;;;;;13.83;56.44;100660.44;5026556;28;20046;-79
2024/02/22 09:10:53;;;;;;;8.45;5.22;;;;;;;14.08;53.36;100652.28;5026208;28;20506;-79
2024/02/22 09:13:18;;;;;;;8.45;5.07;;;;;;;14.00;54.33;100666.81;5026252;28;20040;-80
2024/02/22 09:15:49;;;;;;;8.27;5.63;;;;;;;13.59;54.78;100664.88;5026185;28;20056;-80
2024/02/22 09:18:18;;;;;;;8.00;4.97;;;;;;;14.77;53.62;100665.28;5029496;28;20033;-79
2024/02/22 09:20:46;;;;;;;6.97;4.38;;;;;;;15.25;48.92;100659.69;5029865;28;20044;-78
2024/02/22 09:23:13;;;;;;;;;;;;;;;16.15;49.60;100654.00;5030271;28;20029;-80
2024/02/22 09:25:38;;;;;;;7.18;4.32;;;;;;;15.88;46.59;100662.63;5029524;28;19966;-80
2024/02/22 09:28:04;;;;;;;6.22;4.07;;;;;;;14.83;49.67;100632.97;5029939;28;20056;-80
2024/02/22 09:30:30;;;;;;;6.10;3.88;;;;;;;15.14;51.86;100644.41;5029705;28;20049;-79
2024/02/22 09:32:56;;;;;;;6.65;4.10;;;;;;;15.61;51.03;100633.59;5029432;28;20037;-79
2024/02/22 09:35:22;;;;;;;7.05;4.05;;;;;;;16.75;44.98;100631.84;5029289;28;20040;-79
2024/02/22 09:37:47;;;;;;;7.70;4.88;;;;;;;16.66;46.36;100636.00;5027870;28;20025;-79
2024/02/22 09:40:13;;;;;;;9.68;6.78;;;;;;;18.02;44.51;100629.22;5029102;28;20030;-80
2024/02/22 09:42:39;;;;;;;7.57;4.75;;;;;;;16.37;47.78;100621.81;5029405;28;20061;-80
2024/02/22 09:45:05;;;;;;;7.85;5.03;;;;;;;15.77;48.38;100589.03;5029614;28;20017;-79
2024/02/22 09:47:31;;;;;;;8.13;5.30;;;;;;;16.99;45.67;100600.16;5029324;28;20095;-80
2024/02/22 09:49:57;;;;;;;11.05;5.03;;;;;;;17.72;43.63;100604.56;5029291;28;20033;-80
2024/02/22 09:52:23;;;;;;;7.55;5.15;;;;;;;16.29;47.56;100603.38;5028894;28;20025;-79
2024/02/22 09:54:48;;;;;;;9.15;5.68;;;;;;;14.68;50.01;100581.59;5029249;28;20557;-79
2024/02/22 09:57:14;;;;;;;8.50;5.38;;;;;;;14.23;50.83;100582.09;5029242;28;20030;-79
2024/02/22 09:59:51;;;;;;;7.88;5.63;;;;;;;14.21;51.62;100585.00;5029510;28;20888;-79
2024/02/22 10:02:17;;;;;;;8.25;5.35;;;;;;;14.46;51.67;100584.84;5028839;28;20021;-79
2024/02/22 10:04:56;;;;;;;8.30;6.05;;;;;;;14.62;50.29;100587.91;5029168;28;20116;-79
2024/02/22 10:07:28;;;;;;;9.57;6.38;;;;;;;14.79;49.03;100570.06;5028976;28;20033;-79
2024/02/22 10:09:53;;;;;;;9.23;5.68;;;;;;;15.10;48.88;100570.72;5032876;28;20022;-79
2024/02/22 10:12:30;;;;;;;7.82;6.00;;;;;;;15.42;48.02;100570.28;5028267;28;20033;-80
2024/02/22 10:14:56;;;;;;;10.75;5.15;;;;;;;15.49;48.35;100573.66;5028512;28;20079;-79
2024/02/22 10:17:29;;;;;;;9.68;5.30;;;;;;;15.24;48.62;100564.03;5028377;28;20059;-79
2024/02/22 10:20:12;;;;;;;8.07;5.10;;;;;;;15.47;48.39;100546.22;5044656;28;20506;-78
2024/02/22 10:22:38;;;;;;;8.43;5.72;;;;;;;15.65;47.91;100540.63;5044586;28;20101;-79
2024/02/22 10:25:08;;;;;;;9.13;5.95;;;;;;;16.09;45.45;100553.53;5028800;28;20565;-79
2024/02/22 10:27:34;;;;;;;8.73;5.32;;;;;;;16.07;47.66;100551.06;5028065;28;20039;-79
2024/02/22 10:29:59;;;;;;;9.93;5.97;;;;;;;15.89;46.56;100543.22;5034972;28;20451;-79
2024/02/22 10:32:25;;;;;;;9.25;5.47;;;;;;;16.10;44.95;100538.19;5027993;28;20121;-79
2024/02/22 10:34:51;;;;;;;8.05;5.25;;;;;;;15.73;45.68;100534.06;5027995;28;20029;-79
2024/02/22 10:37:17;;;;;;;9.00;6.03;;;;;;;16.20;44.86;100517.66;5028460;28;20061;-78
2024/02/22 10:39:45;;;;;;;8.43;5.65;;;;;;;16.72;42.83;100531.88;5035245;28;20552;-80
2024/02/22 10:42:14;;;;;;;8.65;5.47;;;;;;;16.90;43.25;100526.22;5038964;28;20038;-79
2024/02/22 10:44:46;;;;;;;6.93;4.80;;;;;;;16.18;45.13;100489.34;5026679;28;20033;-79
2024/02/22 10:47:12;;;;;;;7.32;4.70;;;;;;;16.43;42.88;100513.16;5011726;28;20108;-79
2024/02/22 10:49:38;;;;;;;6.78;4.85;;;;;;;16.32;45.32;100498.72;5026687;28;20129;-79
2024/02/22 10:52:05;;;;;;;6.97;4.63;;;;;;;16.38;43.06;100492.34;5022362;28;20037;-79
2024/02/22 10:54:33;;;;;;;8.27;5.25;;;;;;;17.16;41.06;100513.91;5023962;28;20029;-78
2024/02/22 10:57:01;;;;;;;6.53;4.70;;;;;;;16.81;42.65;100498.88;5024796;28;20056;-80
2024/02/22 10:59:28;;;;;;;7.40;5.07;;;;;;;16.91;43.14;100495.53;5026837;28;20353;-79
2024/02/22 11:01:54;;;;;;;8.43;5.30;;;;;;;16.91;42.28;100481.25;5027741;28;20091;-80
2024/02/22 11:04:20;;;;;;;9.40;5.78;;;;;;;17.12;42.00;100480.44;5023606;28;20052;-78
2024/02/22 11:06:48;;;;;;;7.78;4.95;;;;;;;17.27;41.59;100472.50;5027173;28;20037;-79
2024/02/22 11:09:21;;;;;;;8.00;5.45;;;;;;;17.86;40.41;100487.13;5019437;28;20056;-79
2024/02/22 11:11:48;;;;;;;8.55;5.53;;;;;;;17.34;41.56;100482.28;5016137;28;20050;-79